sensor_id;sensor_type;location;lat;lon;timestamp;temperature;humidity
37460;DHT22;23318;50.966;5.284;2022-09-01T00:01:21;19.20;99.90
37460;DHT22;23318;50.966;5.284;2022-09-01T00:03:50;19.00;99.90
37460;DHT22;23318;50.966;5.284;2022-09-01T00:06:23;19.10;99.90
37460;DHT22;23318;50.966;5.284;2022-09-01T00:08:50;19.20;99.90
37460;DHT22;23318;50.966;5.284;2022-09-01T00:11:17;19.20;99.90
37460;DHT22;23318;50.966;5.284;2022-09-01T00:13:42;19.10;99.90
37460;DHT22;23318;50.966;5.284;2022-09-01T00:16:08;19.10;99.90
37460;DHT22;23318;50.966;5.284;2022-09-01T00:18:39;19.00;99.90
37460;DHT22;23318;50.966;5.284;2022-09-01T00:21:07;18.90;99.90
37460;DHT22;23318;50.966;5.284;2022-09-01T00:23:33;18.90;99.90
37460;DHT22;23318;50.966;5.284;2022-09-01T00:25:58;18.90;99.90
37460;DHT22;23318;50.966;5.284;2022-09-01T00:28:24;18.80;99.90
37460;DHT22;23318;50.966;5.284;2022-09-01T00:30:50;18.70;99.90
37460;DHT22;23318;50.966;5.284;2022-09-01T00:33:16;18.80;99.90
37460;DHT22;23318;50.966;5.284;2022-09-01T00:35:41;18.90;99.90
37460;DHT22;23318;50.966;5.284;2022-09-01T00:38:07;18.90;99.90
37460;DHT22;23318;50.966;5.284;2022-09-01T00:40:33;18.70;99.90
37460;DHT22;23318;50.966;5.284;2022-09-01T00:42:58;18.70;99.90
37460;DHT22;23318;50.966;5.284;2022-09-01T00:45:24;18.70;99.90
37460;DHT22;23318;50.966;5.284;2022-09-01T00:47:50;18.70;99.90
37460;DHT22;23318;50.966;5.284;2022-09-01T00:50:18;18.60;99.90
37460;DHT22;23318;50.966;5.284;2022-09-01T00:52:47;18.60;99.90
37460;DHT22;23318;50.966;5.284;2022-09-01T00:55:24;18.50;99.90
37460;DHT22;23318;50.966;5.284;2022-09-01T00:57:51;18.50;99.90
37460;DHT22;23318;50.966;5.284;2022-09-01T01:00:21;18.40;99.90
37460;DHT22;23318;50.966;5.284;2022-09-01T01:02:48;18.50;99.90
37460;DHT22;23318;50.966;5.284;2022-09-01T01:05:20;18.40;99.90
37460;DHT22;23318;50.966;5.284;2022-09-01T01:07:47;18.30;99.90
37460;DHT22;23318;50.966;5.284;2022-09-01T01:10:16;18.20;99.90
37460;DHT22;23318;50.966;5.284;2022-09-01T01:12:42;18.20;99.90
37460;DHT22;23318;50.966;5.284;2022-09-01T01:15:12;18.20;99.90
37460;DHT22;23318;50.966;5.284;2022-09-01T01:17:38;18.20;99.90
37460;DHT22;23318;50.966;5.284;2022-09-01T01:20:06;18.20;99.90
37460;DHT22;23318;50.966;5.284;2022-09-01T01:23:18;18.20;99.90
37460;DHT22;23318;50.966;5.284;2022-09-01T01:25:49;18.30;99.90
37460;DHT22;23318;50.966;5.284;2022-09-01T01:28:22;18.20;99.90
37460;DHT22;23318;50.966;5.284;2022-09-01T01:30:53;18.10;99.90
37460;DHT22;23318;50.966;5.284;2022-09-01T01:33:22;18.10;99.90
37460;DHT22;23318;50.966;5.284;2022-09-01T01:35:50;18.20;99.90
37460;DHT22;23318;50.966;5.284;2022-09-01T01:38:22;18.10;99.90
37460;DHT22;23318;50.966;5.284;2022-09-01T01:40:49;18.10;99.90
37460;DHT22;23318;50.966;5.284;2022-09-01T01:43:16;18.00;99.90
37460;DHT22;23318;50.966;5.284;2022-09-01T01:45:45;17.90;99.90
37460;DHT22;23318;50.966;5.284;2022-09-01T01:48:14;17.80;99.90
37460;DHT22;23318;50.966;5.284;2022-09-01T01:50:47;17.70;99.90
37460;DHT22;23318;50.966;5.284;2022-09-01T01:53:14;17.80;99.90
37460;DHT22;23318;50.966;5.284;2022-09-01T01:55:41;17.80;99.90
37460;DHT22;23318;50.966;5.284;2022-09-01T01:58:08;17.90;99.90
37460;DHT22;23318;50.966;5.284;2022-09-01T02:00:37;17.80;99.90
37460;DHT22;23318;50.966;5.284;2022-09-01T02:03:03;17.80;99.90
37460;DHT22;23318;50.966;5.284;2022-09-01T02:05:32;17.70;99.90
37460;DHT22;23318;50.966;5.284;2022-09-01T02:08:05;17.70;99.90
37460;DHT22;23318;50.966;5.284;2022-09-01T02:10:38;17.60;99.90
37460;DHT22;23318;50.966;5.284;2022-09-01T02:13:05;17.70;99.90
37460;DHT22;23318;50.966;5.284;2022-09-01T02:15:39;17.60;99.90
37460;DHT22;23318;50.966;5.284;2022-09-01T02:18:20;17.60;99.90
37460;DHT22;23318;50.966;5.284;2022-09-01T02:20:49;17.70;99.90
37460;DHT22;23318;50.966;5.284;2022-09-01T02:23:16;17.80;99.90
37460;DHT22;23318;50.966;5.284;2022-09-01T02:25:49;17.80;99.90
37460;DHT22;23318;50.966;5.284;2022-09-01T02:28:16;17.80;99.90
37460;DHT22;23318;50.966;5.284;2022-09-01T02:30:47;17.80;99.90
37460;DHT22;23318;50.966;5.284;2022-09-01T02:33:14;17.70;99.90
37460;DHT22;23318;50.966;5.284;2022-09-01T02:35:44;17.60;99.90
37460;DHT22;23318;50.966;5.284;2022-09-01T02:38:11;17.60;99.90
37460;DHT22;23318;50.966;5.284;2022-09-01T02:40:41;17.50;99.90
37460;DHT22;23318;50.966;5.284;2022-09-01T02:43:10;17.40;99.90
37460;DHT22;23318;50.966;5.284;2022-09-01T02:45:37;17.50;99.90
37460;DHT22;23318;50.966;5.284;2022-09-01T02:48:04;17.50;99.90
37460;DHT22;23318;50.966;5.284;2022-09-01T02:50:38;17.50;99.90
37460;DHT22;23318;50.966;5.284;2022-09-01T02:53:04;17.40;99.90
37460;DHT22;23318;50.966;5.284;2022-09-01T02:55:38;17.20;99.90
37460;DHT22;23318;50.966;5.284;2022-09-01T02:58:05;17.20;99.90
37460;DHT22;23318;50.966;5.284;2022-09-01T03:00:35;17.10;99.90
37460;DHT22;23318;50.966;5.284;2022-09-01T03:03:05;17.00;99.90
37460;DHT22;23318;50.966;5.284;2022-09-01T03:05:32;17.00;99.90
37460;DHT22;23318;50.966;5.284;2022-09-01T03:08:04;17.00;99.90
37460;DHT22;23318;50.966;5.284;2022-09-01T03:10:37;17.10;99.90
37460;DHT22;23318;50.966;5.284;2022-09-01T03:13:13;17.00;99.90
37460;DHT22;23318;50.966;5.284;2022-09-01T03:15:39;16.90;99.90
37460;DHT22;23318;50.966;5.284;2022-09-01T03:18:07;16.80;99.90
37460;DHT22;23318;50.966;5.284;2022-09-01T03:20:35;16.80;99.90
37460;DHT22;23318;50.966;5.284;2022-09-01T03:23:03;16.70;99.90
37460;DHT22;23318;50.966;5.284;2022-09-01T03:25:33;16.80;99.90
37460;DHT22;23318;50.966;5.284;2022-09-01T03:28:00;16.70;99.90
37460;DHT22;23318;50.966;5.284;2022-09-01T03:30:32;16.70;99.90
37460;DHT22;23318;50.966;5.284;2022-09-01T03:33:00;16.70;99.90
37460;DHT22;23318;50.966;5.284;2022-09-01T03:35:27;16.60;99.90
37460;DHT22;23318;50.966;5.284;2022-09-01T03:37:58;16.50;99.90
37460;DHT22;23318;50.966;5.284;2022-09-01T03:40:25;16.50;99.90
37460;DHT22;23318;50.966;5.284;2022-09-01T03:42:53;16.50;99.90
37460;DHT22;23318;50.966;5.284;2022-09-01T03:45:20;16.50;99.90
37460;DHT22;23318;50.966;5.284;2022-09-01T03:47:46;16.50;99.90
37460;DHT22;23318;50.966;5.284;2022-09-01T03:50:16;16.50;99.90
37460;DHT22;23318;50.966;5.284;2022-09-01T03:52:52;16.50;99.90
37460;DHT22;23318;50.966;5.284;2022-09-01T03:55:26;16.60;99.90
37460;DHT22;23318;50.966;5.284;2022-09-01T03:57:58;16.60;99.90
37460;DHT22;23318;50.966;5.284;2022-09-01T04:00:30;16.60;99.90
37460;DHT22;23318;50.966;5.284;2022-09-01T04:02:57;16.60;99.90
37460;DHT22;23318;50.966;5.284;2022-09-01T04:05:24;16.70;99.90
37460;DHT22;23318;50.966;5.284;2022-09-01T04:07:57;16.70;99.90
37460;DHT22;23318;50.966;5.284;2022-09-01T04:10:25;16.80;99.90
37460;DHT22;23318;50.966;5.284;2022-09-01T04:12:51;16.70;99.90
37460;DHT22;23318;50.966;5.284;2022-09-01T04:15:17;16.80;99.90
37460;DHT22;23318;50.966;5.284;2022-09-01T04:17:43;16.80;99.90
37460;DHT22;23318;50.966;5.284;2022-09-01T04:20:28;16.80;99.90
37460;DHT22;23318;50.966;5.284;2022-09-01T04:22:54;16.80;99.90
37460;DHT22;23318;50.966;5.284;2022-09-01T04:25:21;16.70;99.90
37460;DHT22;23318;50.966;5.284;2022-09-01T04:27:52;16.60;99.90
37460;DHT22;23318;50.966;5.284;2022-09-01T04:30:22;16.60;99.90
37460;DHT22;23318;50.966;5.284;2022-09-01T04:32:51;16.60;99.90
37460;DHT22;23318;50.966;5.284;2022-09-01T04:35:21;16.60;99.90
37460;DHT22;23318;50.966;5.284;2022-09-01T04:37:57;16.50;99.90
37460;DHT22;23318;50.966;5.284;2022-09-01T04:40:24;16.60;99.90
37460;DHT22;23318;50.966;5.284;2022-09-01T04:42:49;16.60;99.90
37460;DHT22;23318;50.966;5.284;2022-09-01T04:45:15;16.50;99.90
37460;DHT22;23318;50.966;5.284;2022-09-01T04:47:45;16.40;99.90
37460;DHT22;23318;50.966;5.284;2022-09-01T04:50:12;16.30;99.90
37460;DHT22;23318;50.966;5.284;2022-09-01T04:52:39;16.20;99.90
37460;DHT22;23318;50.966;5.284;2022-09-01T04:55:07;16.10;99.90
37460;DHT22;23318;50.966;5.284;2022-09-01T04:57:33;16.00;99.90
37460;DHT22;23318;50.966;5.284;2022-09-01T04:59:59;16.10;99.90
37460;DHT22;23318;50.966;5.284;2022-09-01T05:02:26;16.00;99.90
37460;DHT22;23318;50.966;5.284;2022-09-01T05:04:53;15.90;99.90
37460;DHT22;23318;50.966;5.284;2022-09-01T05:07:22;15.90;99.90
37460;DHT22;23318;50.966;5.284;2022-09-01T05:09:47;15.90;99.90
37460;DHT22;23318;50.966;5.284;2022-09-01T05:12:13;15.90;99.90
37460;DHT22;23318;50.966;5.284;2022-09-01T05:14:43;16.00;99.90
37460;DHT22;23318;50.966;5.284;2022-09-01T05:17:13;16.00;99.90
37460;DHT22;23318;50.966;5.284;2022-09-01T05:19:41;15.90;99.90
37460;DHT22;23318;50.966;5.284;2022-09-01T05:22:08;15.90;99.90
37460;DHT22;23318;50.966;5.284;2022-09-01T05:24:36;16.00;99.90
37460;DHT22;23318;50.966;5.284;2022-09-01T05:27:03;16.00;99.90
37460;DHT22;23318;50.966;5.284;2022-09-01T05:29:29;16.00;99.90
37460;DHT22;23318;50.966;5.284;2022-09-01T05:31:56;16.00;99.90
37460;DHT22;23318;50.966;5.284;2022-09-01T05:34:23;16.00;99.90
37460;DHT22;23318;50.966;5.284;2022-09-01T05:36:55;16.00;99.90
37460;DHT22;23318;50.966;5.284;2022-09-01T05:39:23;16.00;99.90
37460;DHT22;23318;50.966;5.284;2022-09-01T05:41:49;16.00;99.90
37460;DHT22;23318;50.966;5.284;2022-09-01T05:44:15;16.10;99.90
37460;DHT22;23318;50.966;5.284;2022-09-01T05:46:42;16.20;99.90
37460;DHT22;23318;50.966;5.284;2022-09-01T05:49:09;16.20;99.90
37460;DHT22;23318;50.966;5.284;2022-09-01T05:51:40;16.10;99.90
37460;DHT22;23318;50.966;5.284;2022-09-01T05:54:08;16.10;99.90
37460;DHT22;23318;50.966;5.284;2022-09-01T05:56:36;16.20;99.90
37460;DHT22;23318;50.966;5.284;2022-09-01T05:59:06;16.20;99.90
37460;DHT22;23318;50.966;5.284;2022-09-01T06:01:32;16.30;99.90
37460;DHT22;23318;50.966;5.284;2022-09-01T06:03:59;16.40;99.90
37460;DHT22;23318;50.966;5.284;2022-09-01T06:06:30;16.60;99.90
37460;DHT22;23318;50.966;5.284;2022-09-01T06:09:00;16.60;99.90
37460;DHT22;23318;50.966;5.284;2022-09-01T06:11:26;16.70;99.90
37460;DHT22;23318;50.966;5.284;2022-09-01T06:13:58;16.80;99.90
37460;DHT22;23318;50.966;5.284;2022-09-01T06:16:25;16.90;99.90
37460;DHT22;23318;50.966;5.284;2022-09-01T06:18:51;17.00;99.90
37460;DHT22;23318;50.966;5.284;2022-09-01T06:21:22;17.20;99.90
37460;DHT22;23318;50.966;5.284;2022-09-01T06:23:50;17.30;99.90
37460;DHT22;23318;50.966;5.284;2022-09-01T06:26:25;17.50;99.90
37460;DHT22;23318;50.966;5.284;2022-09-01T06:28:54;17.50;99.90
37460;DHT22;23318;50.966;5.284;2022-09-01T06:31:21;17.70;99.90
37460;DHT22;23318;50.966;5.284;2022-09-01T06:33:50;17.90;99.90
37460;DHT22;23318;50.966;5.284;2022-09-01T06:36:17;18.00;99.90
37460;DHT22;23318;50.966;5.284;2022-09-01T06:38:44;17.90;99.90
37460;DHT22;23318;50.966;5.284;2022-09-01T06:41:11;17.90;99.90
37460;DHT22;23318;50.966;5.284;2022-09-01T06:43:39;17.90;99.90
37460;DHT22;23318;50.966;5.284;2022-09-01T06:46:06;18.00;99.90
37460;DHT22;23318;50.966;5.284;2022-09-01T06:48:35;18.20;99.90
37460;DHT22;23318;50.966;5.284;2022-09-01T06:51:01;18.20;99.90
37460;DHT22;23318;50.966;5.284;2022-09-01T06:53:29;18.40;99.90
37460;DHT22;23318;50.966;5.284;2022-09-01T06:55:56;18.50;99.90
37460;DHT22;23318;50.966;5.284;2022-09-01T06:58:22;18.60;99.90
37460;DHT22;23318;50.966;5.284;2022-09-01T07:00:50;18.60;99.90
37460;DHT22;23318;50.966;5.284;2022-09-01T07:03:16;18.70;99.90
37460;DHT22;23318;50.966;5.284;2022-09-01T07:05:45;18.90;99.90
37460;DHT22;23318;50.966;5.284;2022-09-01T07:08:13;18.90;99.90
37460;DHT22;23318;50.966;5.284;2022-09-01T07:10:51;19.00;99.90
37460;DHT22;23318;50.966;5.284;2022-09-01T07:13:20;19.30;99.90
37460;DHT22;23318;50.966;5.284;2022-09-01T07:15:51;19.30;99.90
37460;DHT22;23318;50.966;5.284;2022-09-01T07:18:20;19.40;99.90
37460;DHT22;23318;50.966;5.284;2022-09-01T07:20:47;19.30;99.90
37460;DHT22;23318;50.966;5.284;2022-09-01T07:23:15;19.40;99.90
37460;DHT22;23318;50.966;5.284;2022-09-01T07:25:46;19.40;99.90
37460;DHT22;23318;50.966;5.284;2022-09-01T07:28:14;19.50;99.90
37460;DHT22;23318;50.966;5.284;2022-09-01T07:30:44;19.70;99.90
37460;DHT22;23318;50.966;5.284;2022-09-01T07:33:11;19.80;99.90
37460;DHT22;23318;50.966;5.284;2022-09-01T07:35:39;19.80;99.90
37460;DHT22;23318;50.966;5.284;2022-09-01T07:38:06;19.80;99.90
37460;DHT22;23318;50.966;5.284;2022-09-01T07:40:33;19.90;99.90
37460;DHT22;23318;50.966;5.284;2022-09-01T07:43:03;20.20;99.90
37460;DHT22;23318;50.966;5.284;2022-09-01T07:45:36;20.40;99.90
37460;DHT22;23318;50.966;5.284;2022-09-01T07:48:05;20.50;99.90
37460;DHT22;23318;50.966;5.284;2022-09-01T07:50:36;20.60;99.90
37460;DHT22;23318;50.966;5.284;2022-09-01T07:53:02;20.60;99.90
37460;DHT22;23318;50.966;5.284;2022-09-01T07:55:29;20.90;99.90
37460;DHT22;23318;50.966;5.284;2022-09-01T07:57:56;21.00;99.90
37460;DHT22;23318;50.966;5.284;2022-09-01T08:00:23;20.90;99.90
37460;DHT22;23318;50.966;5.284;2022-09-01T08:02:49;21.10;99.90
37460;DHT22;23318;50.966;5.284;2022-09-01T08:05:17;21.20;99.90
37460;DHT22;23318;50.966;5.284;2022-09-01T08:07:47;21.30;99.90
37460;DHT22;23318;50.966;5.284;2022-09-01T08:10:14;21.40;99.90
37460;DHT22;23318;50.966;5.284;2022-09-01T08:12:39;21.50;99.90
37460;DHT22;23318;50.966;5.284;2022-09-01T08:15:06;21.60;99.90
37460;DHT22;23318;50.966;5.284;2022-09-01T08:17:33;21.70;99.90
37460;DHT22;23318;50.966;5.284;2022-09-01T08:20:01;21.70;99.90
37460;DHT22;23318;50.966;5.284;2022-09-01T08:22:26;21.60;99.90
37460;DHT22;23318;50.966;5.284;2022-09-01T08:24:53;21.50;99.90
37460;DHT22;23318;50.966;5.284;2022-09-01T08:27:19;21.60;99.90
37460;DHT22;23318;50.966;5.284;2022-09-01T08:29:45;21.70;99.90
37460;DHT22;23318;50.966;5.284;2022-09-01T08:32:11;21.80;99.90
37460;DHT22;23318;50.966;5.284;2022-09-01T08:34:37;22.00;99.90
37460;DHT22;23318;50.966;5.284;2022-09-01T08:37:04;22.20;99.90
37460;DHT22;23318;50.966;5.284;2022-09-01T08:39:30;22.50;99.90
37460;DHT22;23318;50.966;5.284;2022-09-01T08:45:08;22.50;99.50
37460;DHT22;23318;50.966;5.284;2022-09-01T08:47:32;22.50;99.60
37460;DHT22;23318;50.966;5.284;2022-09-01T08:49:58;22.40;99.90
37460;DHT22;23318;50.966;5.284;2022-09-01T08:55:21;22.60;99.30
37460;DHT22;23318;50.966;5.284;2022-09-01T08:57:53;22.70;98.90
37460;DHT22;23318;50.966;5.284;2022-09-01T09:00:23;22.60;99.20
37460;DHT22;23318;50.966;5.284;2022-09-01T09:10:32;22.80;98.30
37460;DHT22;23318;50.966;5.284;2022-09-01T09:18:39;23.50;97.50
37460;DHT22;23318;50.966;5.284;2022-09-01T09:26:37;23.40;97.30
37460;DHT22;23318;50.966;5.284;2022-09-01T09:29:02;23.50;97.60
37460;DHT22;23318;50.966;5.284;2022-09-01T09:31:34;23.60;96.80
37460;DHT22;23318;50.966;5.284;2022-09-01T09:34:01;23.70;96.40
37460;DHT22;23318;50.966;5.284;2022-09-01T09:36:33;23.50;96.30
37460;DHT22;23318;50.966;5.284;2022-09-01T09:39:07;23.30;97.10
37460;DHT22;23318;50.966;5.284;2022-09-01T09:41:34;23.40;97.80
37460;DHT22;23318;50.966;5.284;2022-09-01T09:51:49;23.60;95.80
37460;DHT22;23318;50.966;5.284;2022-09-01T09:54:27;23.60;95.60
37460;DHT22;23318;50.966;5.284;2022-09-01T10:04:57;24.20;95.40
37460;DHT22;23318;50.966;5.284;2022-09-01T10:07:28;23.90;95.20
37460;DHT22;23318;50.966;5.284;2022-09-01T10:09:56;24.10;94.90
37460;DHT22;23318;50.966;5.284;2022-09-01T10:12:24;24.30;95.20
37460;DHT22;23318;50.966;5.284;2022-09-01T10:14:54;24.50;94.80
37460;DHT22;23318;50.966;5.284;2022-09-01T10:17:27;24.40;94.70
37460;DHT22;23318;50.966;5.284;2022-09-01T10:19:57;24.20;94.20
37460;DHT22;23318;50.966;5.284;2022-09-01T10:22:30;24.30;94.60
37460;DHT22;23318;50.966;5.284;2022-09-01T10:24:58;24.50;94.80
37460;DHT22;23318;50.966;5.284;2022-09-01T10:27:31;24.70;94.60
37460;DHT22;23318;50.966;5.284;2022-09-01T10:30:10;25.00;95.10
37460;DHT22;23318;50.966;5.284;2022-09-01T10:32:44;25.20;94.20
37460;DHT22;23318;50.966;5.284;2022-09-01T10:35:15;25.30;93.80
37460;DHT22;23318;50.966;5.284;2022-09-01T10:37:45;25.00;93.50
37460;DHT22;23318;50.966;5.284;2022-09-01T10:42:40;26.10;92.50
37460;DHT22;23318;50.966;5.284;2022-09-01T10:45:34;27.20;92.00
37460;DHT22;23318;50.966;5.284;2022-09-01T10:50:50;27.30;90.90
37460;DHT22;23318;50.966;5.284;2022-09-01T11:04:21;28.20;85.00
37460;DHT22;23318;50.966;5.284;2022-09-01T11:09:46;30.60;80.40
37460;DHT22;23318;50.966;5.284;2022-09-01T11:14:50;30.10;78.20
37460;DHT22;23318;50.966;5.284;2022-09-01T11:17:23;30.70;76.60
37460;DHT22;23318;50.966;5.284;2022-09-01T11:22:23;31.60;73.70
37460;DHT22;23318;50.966;5.284;2022-09-01T11:30:22;31.00;72.90
37460;DHT22;23318;50.966;5.284;2022-09-01T11:32:58;30.90;72.20
37460;DHT22;23318;50.966;5.284;2022-09-01T11:35:28;32.50;71.60
37460;DHT22;23318;50.966;5.284;2022-09-01T11:38:01;33.00;69.60
37460;DHT22;23318;50.966;5.284;2022-09-01T11:40:33;33.10;67.40
37460;DHT22;23318;50.966;5.284;2022-09-01T11:43:20;33.20;67.20
37460;DHT22;23318;50.966;5.284;2022-09-01T11:48:19;34.90;64.90
37460;DHT22;23318;50.966;5.284;2022-09-01T11:50:59;34.80;64.00
37460;DHT22;23318;50.966;5.284;2022-09-01T11:53:25;34.40;63.80
37460;DHT22;23318;50.966;5.284;2022-09-01T11:55:53;34.80;62.60
37460;DHT22;23318;50.966;5.284;2022-09-01T12:00:53;34.10;61.70
37460;DHT22;23318;50.966;5.284;2022-09-01T12:03:27;34.20;61.00
37460;DHT22;23318;50.966;5.284;2022-09-01T12:06:08;32.50;62.10
37460;DHT22;23318;50.966;5.284;2022-09-01T12:08:37;33.00;62.60
37460;DHT22;23318;50.966;5.284;2022-09-01T12:11:09;33.10;61.20
37460;DHT22;23318;50.966;5.284;2022-09-01T12:13:36;33.90;61.20
37460;DHT22;23318;50.966;5.284;2022-09-01T12:16:06;35.30;60.90
37460;DHT22;23318;50.966;5.284;2022-09-01T12:18:43;34.40;59.00
37460;DHT22;23318;50.966;5.284;2022-09-01T12:21:27;32.00;60.20
37460;DHT22;23318;50.966;5.284;2022-09-01T12:23:52;30.90;60.90
37460;DHT22;23318;50.966;5.284;2022-09-01T12:26:26;31.20;60.90
37460;DHT22;23318;50.966;5.284;2022-09-01T12:28:53;32.90;59.90
37460;DHT22;23318;50.966;5.284;2022-09-01T12:31:22;33.90;60.30
37460;DHT22;23318;50.966;5.284;2022-09-01T12:33:49;35.40;59.40
37460;DHT22;23318;50.966;5.284;2022-09-01T12:36:31;34.10;59.20
37460;DHT22;23318;50.966;5.284;2022-09-01T12:41:42;35.40;57.30
37460;DHT22;23318;50.966;5.284;2022-09-01T12:44:31;33.40;58.50
37460;DHT22;23318;50.966;5.284;2022-09-01T12:49:59;33.80;58.70
37460;DHT22;23318;50.966;5.284;2022-09-01T12:52:31;33.90;57.60
37460;DHT22;23318;50.966;5.284;2022-09-01T12:57:29;32.40;59.10
37460;DHT22;23318;50.966;5.284;2022-09-01T13:02:40;34.40;58.40
37460;DHT22;23318;50.966;5.284;2022-09-01T13:07:55;35.90;55.90
37460;DHT22;23318;50.966;5.284;2022-09-01T13:10:23;35.40;55.10
37460;DHT22;23318;50.966;5.284;2022-09-01T13:12:49;35.60;53.60
37460;DHT22;23318;50.966;5.284;2022-09-01T13:15:16;35.70;54.30
37460;DHT22;23318;50.966;5.284;2022-09-01T13:17:42;35.50;54.20
37460;DHT22;23318;50.966;5.284;2022-09-01T13:20:08;33.60;56.90
37460;DHT22;23318;50.966;5.284;2022-09-01T13:22:34;34.20;56.20
37460;DHT22;23318;50.966;5.284;2022-09-01T13:25:00;34.90;55.50
37460;DHT22;23318;50.966;5.284;2022-09-01T13:27:27;35.50;54.70
37460;DHT22;23318;50.966;5.284;2022-09-01T13:29:52;35.50;54.40
37460;DHT22;23318;50.966;5.284;2022-09-01T13:32:19;35.50;53.70
37460;DHT22;23318;50.966;5.284;2022-09-01T13:34:46;35.70;54.30
37460;DHT22;23318;50.966;5.284;2022-09-01T13:37:11;36.60;54.00
37460;DHT22;23318;50.966;5.284;2022-09-01T13:39:37;35.10;53.60
37460;DHT22;23318;50.966;5.284;2022-09-01T13:42:03;34.70;53.90
37460;DHT22;23318;50.966;5.284;2022-09-01T13:44:28;33.90;55.90
37460;DHT22;23318;50.966;5.284;2022-09-01T13:46:54;34.70;54.70
37460;DHT22;23318;50.966;5.284;2022-09-01T13:49:20;33.80;54.80
37460;DHT22;23318;50.966;5.284;2022-09-01T13:51:52;34.80;54.60
37460;DHT22;23318;50.966;5.284;2022-09-01T13:54:18;35.70;54.40
37460;DHT22;23318;50.966;5.284;2022-09-01T13:56:45;34.90;53.30
37460;DHT22;23318;50.966;5.284;2022-09-01T13:59:11;35.60;53.00
37460;DHT22;23318;50.966;5.284;2022-09-01T14:01:36;37.00;53.80
37460;DHT22;23318;50.966;5.284;2022-09-01T14:04:02;37.00;52.80
37460;DHT22;23318;50.966;5.284;2022-09-01T14:06:30;35.30;52.40
37460;DHT22;23318;50.966;5.284;2022-09-01T14:08:56;36.00;52.80
37460;DHT22;23318;50.966;5.284;2022-09-01T14:11:23;35.40;53.10
37460;DHT22;23318;50.966;5.284;2022-09-01T14:13:49;35.60;53.30
37460;DHT22;23318;50.966;5.284;2022-09-01T14:16:15;35.10;52.90
37460;DHT22;23318;50.966;5.284;2022-09-01T14:18:41;34.10;52.70
37460;DHT22;23318;50.966;5.284;2022-09-01T14:21:12;33.50;53.60
37460;DHT22;23318;50.966;5.284;2022-09-01T14:23:40;33.50;53.90
37460;DHT22;23318;50.966;5.284;2022-09-01T14:26:10;35.40;54.00
37460;DHT22;23318;50.966;5.284;2022-09-01T14:28:36;36.70;53.30
37460;DHT22;23318;50.966;5.284;2022-09-01T14:31:08;36.80;52.00
37460;DHT22;23318;50.966;5.284;2022-09-01T14:33:35;38.10;51.40
37460;DHT22;23318;50.966;5.284;2022-09-01T14:36:01;38.10;51.40
37460;DHT22;23318;50.966;5.284;2022-09-01T14:38:27;37.00;50.80
37460;DHT22;23318;50.966;5.284;2022-09-01T14:40:53;37.00;51.30
37460;DHT22;23318;50.966;5.284;2022-09-01T14:43:19;35.40;51.50
37460;DHT22;23318;50.966;5.284;2022-09-01T14:45:46;34.80;51.70
37460;DHT22;23318;50.966;5.284;2022-09-01T14:48:13;34.40;51.90
37460;DHT22;23318;50.966;5.284;2022-09-01T14:50:46;33.70;52.00
37460;DHT22;23318;50.966;5.284;2022-09-01T14:53:13;33.70;53.10
37460;DHT22;23318;50.966;5.284;2022-09-01T14:55:39;35.00;52.20
37460;DHT22;23318;50.966;5.284;2022-09-01T14:58:05;35.00;51.40
37460;DHT22;23318;50.966;5.284;2022-09-01T15:00:31;35.10;51.60
37460;DHT22;23318;50.966;5.284;2022-09-01T15:03:00;37.00;51.70
37460;DHT22;23318;50.966;5.284;2022-09-01T15:05:26;36.60;51.50
37460;DHT22;23318;50.966;5.284;2022-09-01T15:07:52;37.00;50.60
37460;DHT22;23318;50.966;5.284;2022-09-01T15:10:20;37.40;50.30
37460;DHT22;23318;50.966;5.284;2022-09-01T15:12:47;37.80;50.10
37460;DHT22;23318;50.966;5.284;2022-09-01T15:15:14;35.00;50.40
37460;DHT22;23318;50.966;5.284;2022-09-01T15:17:40;34.30;51.70
37460;DHT22;23318;50.966;5.284;2022-09-01T15:20:06;34.20;51.60
37460;DHT22;23318;50.966;5.284;2022-09-01T15:22:50;34.30;52.10
37460;DHT22;23318;50.966;5.284;2022-09-01T15:25:17;35.20;51.10
37460;DHT22;23318;50.966;5.284;2022-09-01T15:27:43;34.80;51.40
37460;DHT22;23318;50.966;5.284;2022-09-01T15:30:11;34.70;51.30
37460;DHT22;23318;50.966;5.284;2022-09-01T15:32:42;35.00;51.70
37460;DHT22;23318;50.966;5.284;2022-09-01T15:35:11;34.70;51.50
37460;DHT22;23318;50.966;5.284;2022-09-01T15:37:37;34.70;51.40
37460;DHT22;23318;50.966;5.284;2022-09-01T15:40:04;35.00;51.70
37460;DHT22;23318;50.966;5.284;2022-09-01T15:42:32;34.70;52.40
37460;DHT22;23318;50.966;5.284;2022-09-01T15:44:58;33.80;52.10
37460;DHT22;23318;50.966;5.284;2022-09-01T15:47:24;33.40;52.50
37460;DHT22;23318;50.966;5.284;2022-09-01T15:49:50;32.70;52.60
37460;DHT22;23318;50.966;5.284;2022-09-01T15:52:16;32.90;53.10
37460;DHT22;23318;50.966;5.284;2022-09-01T15:54:42;32.60;53.10
37460;DHT22;23318;50.966;5.284;2022-09-01T15:57:07;32.60;53.50
37460;DHT22;23318;50.966;5.284;2022-09-01T15:59:33;32.10;53.40
37460;DHT22;23318;50.966;5.284;2022-09-01T16:02:00;31.30;54.60
37460;DHT22;23318;50.966;5.284;2022-09-01T16:04:26;31.10;55.60
37460;DHT22;23318;50.966;5.284;2022-09-01T16:06:52;31.60;55.90
37460;DHT22;23318;50.966;5.284;2022-09-01T16:09:20;32.80;55.50
37460;DHT22;23318;50.966;5.284;2022-09-01T16:11:45;32.70;54.20
37460;DHT22;23318;50.966;5.284;2022-09-01T16:14:11;34.40;54.30
37460;DHT22;23318;50.966;5.284;2022-09-01T16:16:55;35.70;52.90
37460;DHT22;23318;50.966;5.284;2022-09-01T16:22:29;35.40;52.30
37460;DHT22;23318;50.966;5.284;2022-09-01T16:24:59;33.60;54.20
37460;DHT22;23318;50.966;5.284;2022-09-01T16:27:32;32.10;54.40
37460;DHT22;23318;50.966;5.284;2022-09-01T16:30:05;31.00;55.60
37460;DHT22;23318;50.966;5.284;2022-09-01T16:32:33;30.10;57.40
37460;DHT22;23318;50.966;5.284;2022-09-01T16:35:00;29.70;57.50
37460;DHT22;23318;50.966;5.284;2022-09-01T16:43:05;29.40;58.50
37460;DHT22;23318;50.966;5.284;2022-09-01T16:48:44;28.90;59.60
37460;DHT22;23318;50.966;5.284;2022-09-01T16:51:37;28.20;59.30
37460;DHT22;23318;50.966;5.284;2022-09-01T16:54:32;28.00;60.30
37460;DHT22;23318;50.966;5.284;2022-09-01T16:59:58;27.70;61.30
37460;DHT22;23318;50.966;5.284;2022-09-01T17:02:34;27.80;61.20
37460;DHT22;23318;50.966;5.284;2022-09-01T17:08:04;27.40;61.50
37460;DHT22;23318;50.966;5.284;2022-09-01T17:10:40;27.40;61.40
37460;DHT22;23318;50.966;5.284;2022-09-01T17:13:33;27.50;61.70
37460;DHT22;23318;50.966;5.284;2022-09-01T17:16:15;27.50;61.50
37460;DHT22;23318;50.966;5.284;2022-09-01T17:21:19;27.20;62.00
37460;DHT22;23318;50.966;5.284;2022-09-01T17:24:02;27.20;62.30
37460;DHT22;23318;50.966;5.284;2022-09-01T17:26:39;27.00;62.80
37460;DHT22;23318;50.966;5.284;2022-09-01T17:29:18;26.90;63.20
37460;DHT22;23318;50.966;5.284;2022-09-01T17:40:15;26.60;64.50